createdAt,value
2023-04-06T00:00:15.697Z,12.77
2023-04-06T00:02:42.405Z,12.40
2023-04-06T00:05:09.458Z,13.27
2023-04-06T00:07:36.438Z,12.23
2023-04-06T00:10:04.388Z,12.47
2023-04-06T00:12:31.187Z,12.37
2023-04-06T00:14:57.928Z,11.63
2023-04-06T00:17:24.884Z,11.53
2023-04-06T00:19:51.896Z,11.73
2023-04-06T00:22:18.750Z,11.47
2023-04-06T00:24:45.511Z,11.57
2023-04-06T00:27:12.247Z,11.57
2023-04-06T00:29:39.717Z,9.83
2023-04-06T00:32:06.665Z,11.00
2023-04-06T00:34:33.548Z,10.17
2023-04-06T00:37:00.465Z,11.17
2023-04-06T00:39:27.253Z,11.33
2023-04-06T00:41:54.882Z,10.93
2023-04-06T00:44:23.282Z,11.50
2023-04-06T00:46:51.256Z,10.80
2023-04-06T00:49:18.127Z,10.57
2023-04-06T00:51:45.025Z,10.17
2023-04-06T00:54:12.022Z,11.37
2023-04-06T00:56:38.862Z,11.93
2023-04-06T00:59:05.787Z,10.07
2023-04-06T01:01:33.528Z,10.97
2023-04-06T01:04:00.620Z,10.83
2023-04-06T01:06:27.382Z,11.53
2023-04-06T01:08:54.170Z,11.47
2023-04-06T01:11:21.049Z,11.63
2023-04-06T01:13:48.011Z,10.87
2023-04-06T01:16:15.018Z,12.30
2023-04-06T01:18:43.228Z,10.63
2023-04-06T01:21:16.384Z,12.47
2023-04-06T01:23:46.651Z,14.13
2023-04-06T01:26:14.490Z,13.60
2023-04-06T01:28:41.420Z,15.03
2023-04-06T01:31:09.796Z,15.20
2023-04-06T01:33:36.816Z,14.57
2023-04-06T01:36:04.825Z,14.03
2023-04-06T01:38:31.840Z,13.60
2023-04-06T01:40:58.597Z,14.07
2023-04-06T01:43:25.552Z,13.97
2023-04-06T01:45:52.315Z,14.50
2023-04-06T01:48:19.454Z,14.50
2023-04-06T01:50:46.427Z,14.40
2023-04-06T01:53:13.284Z,13.73
2023-04-06T01:55:40.077Z,13.83
2023-04-06T01:58:09.567Z,13.63
2023-04-06T02:00:36.344Z,14.73
2023-04-06T02:03:03.316Z,15.33
2023-04-06T02:05:31.924Z,14.63
2023-04-06T02:07:58.652Z,13.77
2023-04-06T02:10:25.758Z,13.83
2023-04-06T02:12:54.845Z,14.30
2023-04-06T02:15:21.648Z,12.87
2023-04-06T02:17:48.384Z,14.60
2023-04-06T02:20:15.254Z,14.30
2023-04-06T02:22:41.979Z,14.33
2023-04-06T02:25:09.035Z,15.30
2023-04-06T02:27:36.481Z,14.30
2023-04-06T02:30:06.632Z,14.97
2023-04-06T02:32:33.337Z,13.97
2023-04-06T02:35:03.709Z,14.57
2023-04-06T02:37:30.428Z,16.37
2023-04-06T02:39:57.380Z,14.40
2023-04-06T02:42:24.140Z,15.60
2023-04-06T02:44:51.165Z,14.33
2023-04-06T02:47:17.913Z,14.83
2023-04-06T02:49:45.485Z,15.07
2023-04-06T02:52:13.300Z,14.40
2023-04-06T02:54:40.448Z,15.30
2023-04-06T02:57:08.810Z,15.13
2023-04-06T02:59:35.667Z,15.07
2023-04-06T03:02:02.433Z,14.47
2023-04-06T03:04:29.196Z,16.10
2023-04-06T03:06:56.354Z,16.20
2023-04-06T03:09:23.481Z,15.07
2023-04-06T03:11:50.294Z,15.10
2023-04-06T03:14:22.541Z,15.30
2023-04-06T03:16:49.917Z,15.10
2023-04-06T03:19:16.735Z,13.83
2023-04-06T03:21:43.424Z,16.00
2023-04-06T03:24:10.160Z,15.00
2023-04-06T03:26:37.048Z,14.30
2023-04-06T03:29:03.839Z,14.37
2023-04-06T03:31:31.760Z,13.93
2023-04-06T03:33:58.600Z,14.17
2023-04-06T03:36:26.407Z,13.73
2023-04-06T03:38:54.561Z,15.30
2023-04-06T03:41:21.951Z,14.70
2023-04-06T03:43:48.803Z,14.70
2023-04-06T03:46:15.633Z,14.73
2023-04-06T03:48:42.359Z,15.37
2023-04-06T03:51:09.250Z,14.27
2023-04-06T03:53:38.115Z,15.13
2023-04-06T03:56:05.329Z,14.67
2023-04-06T03:58:32.499Z,13.97
2023-04-06T04:00:59.292Z,13.97
2023-04-06T04:03:28.804Z,13.83
2023-04-06T04:05:58.963Z,13.67
2023-04-06T04:08:26.156Z,14.60
2023-04-06T04:10:53.039Z,14.90
2023-04-06T04:13:20.090Z,13.83
2023-04-06T04:15:48.509Z,13.87
2023-04-06T04:18:15.368Z,13.90
2023-04-06T04:20:44.942Z,13.87
2023-04-06T04:23:13.694Z,15.40
2023-04-06T04:25:40.416Z,13.50
2023-04-06T04:28:07.138Z,13.37
2023-04-06T04:30:34.023Z,14.70
2023-04-06T04:33:01.229Z,14.17
2023-04-06T04:35:28.372Z,14.60
2023-04-06T04:37:55.429Z,13.97
2023-04-06T04:40:22.518Z,14.30
2023-04-06T04:42:52.127Z,14.30
2023-04-06T04:45:18.886Z,12.87
2023-04-06T04:47:45.775Z,14.53
2023-04-06T04:50:12.567Z,13.13
2023-04-06T04:52:39.356Z,15.27
2023-04-06T04:55:06.702Z,13.93
2023-04-06T04:57:33.411Z,14.47
2023-04-06T05:00:00.220Z,14.77
2023-04-06T05:02:27.218Z,13.63
2023-04-06T05:04:53.966Z,13.87
2023-04-06T05:07:21.885Z,13.80
2023-04-06T05:09:48.946Z,13.90
2023-04-06T05:12:15.850Z,14.23
2023-04-06T05:14:42.873Z,14.07
2023-04-06T05:17:09.844Z,13.70
2023-04-06T05:19:36.852Z,15.03
2023-04-06T05:22:03.521Z,14.13
2023-04-06T05:24:30.803Z,13.10
2023-04-06T05:27:00.493Z,13.97
2023-04-06T05:29:27.214Z,13.63
2023-04-06T05:31:54.156Z,14.37
2023-04-06T05:34:20.837Z,15.43
2023-04-06T05:36:47.555Z,14.97
2023-04-06T05:39:14.524Z,14.33
2023-04-06T05:41:41.591Z,15.27
2023-04-06T05:44:08.326Z,14.30
2023-04-06T05:46:35.205Z,14.57
2023-04-06T05:49:02.101Z,14.60
2023-04-06T05:51:28.891Z,14.67
2023-04-06T05:53:55.724Z,15.47
2023-04-06T05:56:22.478Z,14.37
2023-04-06T05:58:49.235Z,14.33
2023-04-06T06:01:16.654Z,14.53
2023-04-06T06:03:43.447Z,14.77
2023-04-06T06:06:10.386Z,14.23
2023-04-06T06:08:37.327Z,14.53
2023-04-06T06:11:04.334Z,16.00
2023-04-06T06:13:31.231Z,13.93
2023-04-06T06:15:58.546Z,14.70
2023-04-06T06:18:25.372Z,14.60
2023-04-06T06:20:52.148Z,15.03
2023-04-06T06:23:18.946Z,14.87
2023-04-06T06:25:45.680Z,14.23
2023-04-06T06:28:12.417Z,15.60
2023-04-06T06:30:39.117Z,13.63
2023-04-06T06:33:05.980Z,14.20
2023-04-06T06:35:32.812Z,13.53
2023-04-06T06:37:59.635Z,13.67
2023-04-06T06:40:27.201Z,13.73
2023-04-06T06:42:54.091Z,13.93
2023-04-06T06:45:21.309Z,13.23
2023-04-06T06:47:48.462Z,13.10
2023-04-06T06:50:15.236Z,13.47
2023-04-06T06:52:43.105Z,13.57
2023-04-06T06:55:11.614Z,15.00
2023-04-06T06:57:39.337Z,13.23
2023-04-06T07:00:08.885Z,13.50
2023-04-06T07:02:36.957Z,14.13
2023-04-06T07:05:10.147Z,13.93
2023-04-06T07:07:43.372Z,13.33
2023-04-06T07:10:10.967Z,13.90
2023-04-06T07:12:37.781Z,14.03
2023-04-06T07:15:04.921Z,13.60
2023-04-06T07:17:31.719Z,15.80
2023-04-06T07:19:58.658Z,13.57
2023-04-06T07:22:25.716Z,14.00
2023-04-06T07:24:52.451Z,13.77
2023-04-06T07:27:19.865Z,13.17
2023-04-06T07:29:46.638Z,14.90
2023-04-06T07:32:13.391Z,14.57
2023-04-06T07:34:40.402Z,14.53
2023-04-06T07:37:07.181Z,15.13
2023-04-06T07:39:33.875Z,14.07
2023-04-06T07:42:01.007Z,14.27
2023-04-06T07:44:27.894Z,13.73
2023-04-06T07:46:54.669Z,14.47
2023-04-06T07:49:21.938Z,15.13
2023-04-06T07:51:48.710Z,13.80
2023-04-06T07:54:15.610Z,15.17
2023-04-06T07:56:42.377Z,15.97
2023-04-06T07:59:09.439Z,14.80
2023-04-06T08:01:36.232Z,14.40
2023-04-06T08:04:03.563Z,15.10
2023-04-06T08:06:30.610Z,14.80
2023-04-06T08:08:57.605Z,14.87
2023-04-06T08:11:24.303Z,14.67
2023-04-06T08:13:51.438Z,15.10
2023-04-06T08:16:18.426Z,14.50
2023-04-06T08:18:45.347Z,15.17
2023-04-06T08:21:12.142Z,14.67
2023-04-06T08:23:38.883Z,14.80
2023-04-06T08:26:05.712Z,15.00
2023-04-06T08:28:32.548Z,14.87
2023-04-06T08:30:59.316Z,15.03
2023-04-06T08:33:26.309Z,15.27
2023-04-06T08:35:53.095Z,14.93
2023-04-06T08:38:19.809Z,15.40
2023-04-06T08:40:48.943Z,14.77
2023-04-06T08:43:17.906Z,14.80
2023-04-06T08:45:55.017Z,14.90
2023-04-06T08:48:22.381Z,15.43
2023-04-06T08:50:49.317Z,15.73
2023-04-06T08:53:17.399Z,15.40
2023-04-06T08:55:45.276Z,15.20
2023-04-06T08:58:12.158Z,15.13
2023-04-06T09:00:40.345Z,14.57
2023-04-06T09:03:08.462Z,15.70
2023-04-06T09:05:36.056Z,15.33
2023-04-06T09:08:03.226Z,16.07
2023-04-06T09:10:30.924Z,15.23
2023-04-06T09:13:07.675Z,16.10
2023-04-06T09:15:34.996Z,15.83
2023-04-06T09:18:02.254Z,15.83
2023-04-06T09:20:32.082Z,15.23
2023-04-06T09:22:58.977Z,15.70
2023-04-06T09:25:29.255Z,16.30
2023-04-06T09:28:04.408Z,15.10
2023-04-06T09:30:31.900Z,16.97
2023-04-06T09:33:00.489Z,15.33
2023-04-06T09:35:28.532Z,15.03
2023-04-06T09:37:56.328Z,15.40
2023-04-06T09:40:23.379Z,14.67
2023-04-06T09:42:53.706Z,14.93
2023-04-06T09:45:21.833Z,15.27
2023-04-06T09:47:49.469Z,14.30
2023-04-06T09:50:17.454Z,15.20
2023-04-06T09:52:51.956Z,14.97
2023-04-06T09:55:26.155Z,15.50
2023-04-06T09:58:05.304Z,15.23
2023-04-06T10:00:35.826Z,16.23
2023-04-06T10:03:17.419Z,15.30
2023-04-06T10:05:51.261Z,15.07
2023-04-06T10:08:20.435Z,15.40
2023-04-06T10:10:47.843Z,14.87
2023-04-06T10:13:14.618Z,15.87
2023-04-06T10:15:42.726Z,15.27
2023-04-06T10:18:09.953Z,16.90
2023-04-06T10:20:51.296Z,16.53
2023-04-06T10:23:30.687Z,15.47
2023-04-06T10:25:59.085Z,16.90
2023-04-06T10:28:27.163Z,16.27
2023-04-06T10:31:02.298Z,17.17
2023-04-06T10:33:29.638Z,16.57
2023-04-06T10:35:56.945Z,17.50
2023-04-06T10:38:44.209Z,16.60
2023-04-06T10:41:12.847Z,16.73
2023-04-06T10:43:41.529Z,17.03
2023-04-06T10:46:11.154Z,16.50
2023-04-06T10:48:46.629Z,17.03
2023-04-06T10:51:17.389Z,16.83
2023-04-06T10:53:46.706Z,15.87
2023-04-06T10:56:16.622Z,16.60
2023-04-06T10:58:52.165Z,16.10
2023-04-06T11:01:23.140Z,16.13
2023-04-06T11:04:00.340Z,15.23
2023-04-06T11:06:32.434Z,15.30
2023-04-06T11:08:59.895Z,16.63
2023-04-06T11:11:28.013Z,16.23
2023-04-06T11:13:57.922Z,14.20
2023-04-06T11:16:34.532Z,14.43
2023-04-06T11:19:03.652Z,15.20
2023-04-06T11:21:41.029Z,14.33
2023-04-06T11:24:24.876Z,12.97
2023-04-06T11:27:01.430Z,11.57
2023-04-06T11:29:31.582Z,11.13
2023-04-06T11:32:04.718Z,11.47
2023-04-06T11:34:34.244Z,10.73
2023-04-06T11:37:03.698Z,11.27
2023-04-06T11:39:31.280Z,11.20
2023-04-06T11:42:08.964Z,12.47
2023-04-06T11:44:50.228Z,10.97
2023-04-06T11:47:17.114Z,11.10
2023-04-06T11:49:48.634Z,10.97
2023-04-06T11:52:26.209Z,11.83
2023-04-06T11:54:55.137Z,11.80
2023-04-06T11:57:26.744Z,12.67
2023-04-06T11:59:53.701Z,12.57
2023-04-06T12:02:20.513Z,13.53
2023-04-06T12:04:47.636Z,13.97
2023-04-06T12:07:14.515Z,13.63
2023-04-06T12:09:41.353Z,13.80
2023-04-06T12:12:08.126Z,13.27
2023-04-06T12:14:34.823Z,14.03
2023-04-06T12:17:01.699Z,14.17
2023-04-06T12:19:29.930Z,14.57
2023-04-06T12:21:58.575Z,13.37
2023-04-06T12:24:25.520Z,14.50
2023-04-06T12:26:59.533Z,13.97
2023-04-06T12:29:30.388Z,14.00
2023-04-06T12:31:57.331Z,13.80
2023-04-06T12:34:24.104Z,14.17
2023-04-06T12:36:51.214Z,13.50
2023-04-06T12:39:21.642Z,13.20
2023-04-06T12:41:48.641Z,13.70
2023-04-06T12:44:15.676Z,13.47
2023-04-06T12:46:44.254Z,13.83
2023-04-06T12:49:11.327Z,13.27
2023-04-06T12:51:38.156Z,13.23
2023-04-06T12:54:05.049Z,13.17
2023-04-06T12:56:32.236Z,13.93
2023-04-06T12:58:59.096Z,12.37
2023-04-06T13:01:27.661Z,13.37
2023-04-06T13:03:54.526Z,13.23
2023-04-06T13:06:21.415Z,11.67
2023-04-06T13:08:51.233Z,11.57
2023-04-06T13:11:18.247Z,13.00
2023-04-06T13:13:44.961Z,12.50
2023-04-06T13:16:11.703Z,12.10
2023-04-06T13:18:40.124Z,11.60
2023-04-06T13:21:07.663Z,11.60
2023-04-06T13:23:35.950Z,10.47
2023-04-06T13:26:07.212Z,10.13
2023-04-06T13:28:35.870Z,9.60
2023-04-06T13:31:03.512Z,9.27
2023-04-06T13:33:31.727Z,10.20
2023-04-06T13:35:59.706Z,8.97
2023-04-06T13:38:26.592Z,9.33
2023-04-06T13:40:53.459Z,9.20
2023-04-06T13:43:23.335Z,8.60
2023-04-06T13:45:59.161Z,8.80
2023-04-06T13:48:27.078Z,8.97
2023-04-06T13:50:53.838Z,8.63
2023-04-06T13:53:20.732Z,8.67
2023-04-06T13:55:57.340Z,8.00
2023-04-06T13:58:24.496Z,7.87
2023-04-06T14:00:51.967Z,8.07
2023-04-06T14:03:19.305Z,8.70
2023-04-06T14:05:46.539Z,8.90
2023-04-06T14:08:13.373Z,9.17
2023-04-06T14:10:43.757Z,9.10
2023-04-06T14:13:10.754Z,8.63
2023-04-06T14:15:38.507Z,8.73
2023-04-06T14:18:05.408Z,9.10
2023-04-06T14:20:33.617Z,9.33
2023-04-06T14:23:04.405Z,9.80
2023-04-06T14:25:33.176Z,9.67
2023-04-06T14:28:00.420Z,9.70
2023-04-06T14:30:28.948Z,10.03
2023-04-06T14:32:59.256Z,10.20
2023-04-06T14:35:26.451Z,10.10
2023-04-06T14:37:53.528Z,10.83
2023-04-06T14:40:20.572Z,9.33
2023-04-06T14:42:47.577Z,9.40
2023-04-06T14:45:14.418Z,10.37
2023-04-06T14:47:41.158Z,11.03
2023-04-06T14:50:08.418Z,11.00
2023-04-06T14:52:35.882Z,10.13
2023-04-06T14:55:02.715Z,10.57
2023-04-06T14:57:29.436Z,10.67
2023-04-06T14:59:56.521Z,11.70
2023-04-06T15:02:23.616Z,11.07
2023-04-06T15:04:53.239Z,10.80
2023-04-06T15:07:20.907Z,12.20
2023-04-06T15:09:47.670Z,11.57
2023-04-06T15:12:14.993Z,11.67
2023-04-06T15:14:41.777Z,12.10
2023-04-06T15:17:08.823Z,12.23
2023-04-06T15:19:35.954Z,11.37
2023-04-06T15:22:02.684Z,11.83
2023-04-06T15:24:29.412Z,11.33
2023-04-06T15:26:56.849Z,11.00
2023-04-06T15:29:23.709Z,12.00
2023-04-06T15:31:50.529Z,11.50
2023-04-06T15:34:17.315Z,11.43
2023-04-06T15:36:44.696Z,11.83
2023-04-06T15:39:11.449Z,11.07
2023-04-06T15:41:38.519Z,12.57
2023-04-06T15:44:05.576Z,11.13
2023-04-06T15:46:32.393Z,11.30
2023-04-06T15:48:59.206Z,10.93
2023-04-06T15:51:27.538Z,12.07
2023-04-06T15:53:54.258Z,10.00
2023-04-06T15:56:21.026Z,11.70
2023-04-06T15:58:48.505Z,12.33
2023-04-06T16:01:17.018Z,14.10
2023-04-06T16:03:44.134Z,12.50
2023-04-06T16:06:11.479Z,12.97
2023-04-06T16:08:39.108Z,13.40
2023-04-06T16:11:05.912Z,14.20
2023-04-06T16:13:33.131Z,13.33
2023-04-06T16:16:00.029Z,15.43
2023-04-06T16:18:27.366Z,14.13
2023-04-06T16:20:56.992Z,15.13
2023-04-06T16:23:24.138Z,15.50
2023-04-06T16:25:50.993Z,16.30
2023-04-06T16:28:17.794Z,15.93
2023-04-06T16:30:46.651Z,16.20
2023-04-06T16:33:14.050Z,17.43
2023-04-06T16:35:48.326Z,17.10
2023-04-06T16:38:16.147Z,17.07
2023-04-06T16:40:43.125Z,15.67
2023-04-06T16:43:14.016Z,15.63
2023-04-06T16:45:41.278Z,14.93
2023-04-06T16:48:08.549Z,16.73
2023-04-06T16:50:36.492Z,16.70
2023-04-06T16:53:03.473Z,16.07
2023-04-06T16:55:30.392Z,17.20
2023-04-06T16:57:57.515Z,15.83
2023-04-06T17:00:24.718Z,15.80
2023-04-06T17:02:51.682Z,17.00
2023-04-06T17:05:24.737Z,16.10
2023-04-06T17:07:52.047Z,15.13
2023-04-06T17:10:24.057Z,16.83
2023-04-06T17:13:00.680Z,15.87
2023-04-06T17:15:31.926Z,17.00
2023-04-06T17:18:02.424Z,17.67
2023-04-06T17:20:29.554Z,17.30
2023-04-06T17:22:56.525Z,17.33
2023-04-06T17:25:23.639Z,16.43
2023-04-06T17:27:51.927Z,16.57
2023-04-06T17:30:18.817Z,17.63
2023-04-06T17:32:46.453Z,16.93
2023-04-06T17:35:13.383Z,17.50
2023-04-06T17:37:40.716Z,18.33
2023-04-06T17:40:08.430Z,19.27
2023-04-06T17:42:35.454Z,19.17
2023-04-06T17:45:02.268Z,18.77
2023-04-06T17:47:32.191Z,19.70
2023-04-06T17:50:00.820Z,20.13
2023-04-06T17:52:31.887Z,21.00
2023-04-06T17:55:04.632Z,20.40
2023-04-06T17:57:34.064Z,21.00
2023-04-06T18:00:01.257Z,20.50
2023-04-06T18:02:28.162Z,22.00
2023-04-06T18:04:56.499Z,21.37
2023-04-06T18:07:23.440Z,20.40
2023-04-06T18:09:50.492Z,21.13
2023-04-06T18:12:17.409Z,21.83
2023-04-06T18:14:47.441Z,21.33
2023-04-06T18:17:14.809Z,22.70
2023-04-06T18:19:41.579Z,21.63
2023-04-06T18:22:08.358Z,21.57
2023-04-06T18:24:42.233Z,22.77
2023-04-06T18:27:11.195Z,21.47
2023-04-06T18:29:37.996Z,21.83
2023-04-06T18:32:06.201Z,23.17
2023-04-06T18:34:33.516Z,22.67
2023-04-06T18:37:01.705Z,23.93
2023-04-06T18:39:28.915Z,22.67
2023-04-06T18:41:58.651Z,23.97
2023-04-06T18:44:25.943Z,22.13
2023-04-06T18:46:54.994Z,22.30
2023-04-06T18:49:25.349Z,21.93
2023-04-06T18:51:53.784Z,21.87
2023-04-06T18:54:20.806Z,23.17
2023-04-06T18:56:49.274Z,23.53
2023-04-06T18:59:17.406Z,23.73
2023-04-06T19:01:46.896Z,24.27
2023-04-06T19:04:14.045Z,22.70
2023-04-06T19:06:41.208Z,23.83
2023-04-06T19:09:08.297Z,24.30
2023-04-06T19:11:36.591Z,21.73
2023-04-06T19:14:03.532Z,22.73
2023-04-06T19:16:30.299Z,24.23
2023-04-06T19:18:57.543Z,24.33
2023-04-06T19:21:26.429Z,25.27
2023-04-06T19:23:55.617Z,23.80
2023-04-06T19:26:24.113Z,24.27
2023-04-06T19:28:51.373Z,25.50
2023-04-06T19:31:18.850Z,31.15
2023-04-06T19:33:46.869Z,26.50
2023-04-06T19:36:14.325Z,25.13
2023-04-06T19:38:42.047Z,25.10
2023-04-06T19:41:09.283Z,25.00
2023-04-06T19:43:36.206Z,26.30
2023-04-06T19:46:04.501Z,26.93
2023-04-06T19:48:33.772Z,25.47
2023-04-06T19:51:00.886Z,26.47
2023-04-06T19:53:29.872Z,27.47
2023-04-06T19:56:00.944Z,26.97
2023-04-06T19:58:28.784Z,27.23
2023-04-06T20:00:55.524Z,26.60
2023-04-06T20:03:22.419Z,26.73
2023-04-06T20:05:49.377Z,28.73
2023-04-06T20:08:16.136Z,28.33
2023-04-06T20:10:43.064Z,28.10
2023-04-06T20:13:09.940Z,29.30
2023-04-06T20:15:36.815Z,28.90
2023-04-06T20:18:03.701Z,29.13
2023-04-06T20:20:30.999Z,28.80
2023-04-06T20:22:57.820Z,30.30
2023-04-06T20:25:25.733Z,29.73
2023-04-06T20:27:54.070Z,28.60
2023-04-06T20:30:21.096Z,31.80
2023-04-06T20:32:47.951Z,30.97
2023-04-06T20:35:14.830Z,31.00
2023-04-06T20:37:43.113Z,31.27
2023-04-06T20:40:12.207Z,31.17
2023-04-06T20:42:39.288Z,31.00
2023-04-06T20:45:08.083Z,32.47
2023-04-06T20:47:35.830Z,29.33
2023-04-06T20:50:02.686Z,31.03
2023-04-06T20:52:29.859Z,29.80
2023-04-06T20:54:57.729Z,30.27
2023-04-06T20:57:25.734Z,30.07
2023-04-06T20:59:52.697Z,30.80
2023-04-06T21:02:19.657Z,31.20
2023-04-06T21:04:47.701Z,29.73
2023-04-06T21:07:14.549Z,30.13
2023-04-06T21:09:41.604Z,29.77
2023-04-06T21:12:08.485Z,32.10
2023-04-06T21:14:35.490Z,31.10
2023-04-06T21:17:02.689Z,29.43
2023-04-06T21:19:29.573Z,29.97
2023-04-06T21:21:56.705Z,30.37
2023-04-06T21:24:23.552Z,30.07
2023-04-06T21:26:50.504Z,31.97
2023-04-06T21:29:17.359Z,31.77
2023-04-06T21:31:44.380Z,31.00
2023-04-06T21:34:14.462Z,30.50
2023-04-06T21:36:41.694Z,31.63
2023-04-06T21:39:11.099Z,31.83
2023-04-06T21:41:37.936Z,31.70
2023-04-06T21:44:04.781Z,32.50
2023-04-06T21:46:32.410Z,32.67
2023-04-06T21:48:59.577Z,30.83
2023-04-06T21:51:26.473Z,31.87
2023-04-06T21:53:53.788Z,31.10
2023-04-06T21:56:25.424Z,30.13
2023-04-06T21:58:53.286Z,31.33
2023-04-06T22:01:20.842Z,30.50
2023-04-06T22:03:50.774Z,33.80
2023-04-06T22:06:17.902Z,32.47
2023-04-06T22:08:48.230Z,32.97
2023-04-06T22:11:15.185Z,33.23
2023-04-06T22:13:42.034Z,32.60
2023-04-06T22:16:08.903Z,32.07
2023-04-06T22:18:38.690Z,33.53
2023-04-06T22:21:06.071Z,32.90
2023-04-06T22:23:33.228Z,31.70
2023-04-06T22:26:00.138Z,33.37
2023-04-06T22:28:27.212Z,31.57
2023-04-06T22:30:53.986Z,34.30
2023-04-06T22:33:22.121Z,32.10
2023-04-06T22:35:48.948Z,33.77
2023-04-06T22:38:15.799Z,33.60
2023-04-06T22:40:45.474Z,35.40
2023-04-06T22:43:12.298Z,34.60
2023-04-06T22:45:39.125Z,33.13
2023-04-06T22:48:06.067Z,33.03
2023-04-06T22:50:33.005Z,34.80
2023-04-06T22:52:59.756Z,35.60
2023-04-06T22:55:26.504Z,34.93
2023-04-06T22:57:53.377Z,35.00
2023-04-06T23:00:20.454Z,35.77
2023-04-06T23:02:47.347Z,34.23
2023-04-06T23:05:14.431Z,34.83
2023-04-06T23:07:41.708Z,33.50
2023-04-06T23:10:08.867Z,33.93
2023-04-06T23:12:35.674Z,33.67
2023-04-06T23:15:02.417Z,32.93
2023-04-06T23:17:29.110Z,33.43
2023-04-06T23:19:55.818Z,31.83
2023-04-06T23:22:22.673Z,32.10
2023-04-06T23:24:50.113Z,33.77
2023-04-06T23:27:16.941Z,33.47
2023-04-06T23:29:43.687Z,34.50
2023-04-06T23:32:10.940Z,33.60
2023-04-06T23:34:37.751Z,32.87
2023-04-06T23:37:04.644Z,32.60
2023-04-06T23:39:31.820Z,34.17
2023-04-06T23:41:58.498Z,34.37
2023-04-06T23:44:28.771Z,33.53
2023-04-06T23:46:55.495Z,33.83
2023-04-06T23:49:22.265Z,36.70
2023-04-06T23:51:48.959Z,34.17
2023-04-06T23:54:18.513Z,35.57
2023-04-06T23:56:46.396Z,34.37
2023-04-06T23:59:13.128Z,34.40
